createdAt,value
2023-04-02T00:00:43.856Z,995.20
2023-04-02T00:01:44.962Z,995.25
2023-04-02T00:02:44.242Z,995.31
2023-04-02T00:03:46.761Z,995.27
2023-04-02T00:04:44.605Z,995.31
2023-04-02T00:05:46.281Z,995.28
2023-04-02T00:06:46.889Z,995.25
2023-04-02T00:07:46.014Z,995.32
2023-04-02T00:08:45.247Z,995.32
2023-04-02T00:09:45.440Z,995.38
2023-04-02T00:10:46.691Z,995.42
2023-04-02T00:11:45.940Z,995.42
2023-04-02T00:12:46.297Z,995.48
2023-04-02T00:13:46.756Z,995.48
2023-04-02T00:14:47.062Z,995.43
2023-04-02T00:15:48.264Z,995.48
2023-04-02T00:16:48.556Z,995.52
2023-04-02T00:17:47.853Z,995.50
2023-04-02T00:18:48.090Z,995.57
2023-04-02T00:19:48.788Z,995.54
2023-04-02T00:21:26.284Z,995.52
2023-04-02T00:22:27.400Z,995.53
2023-04-02T00:23:25.509Z,995.60
2023-04-02T00:24:26.644Z,995.62
2023-04-02T00:25:25.768Z,995.55
2023-04-02T00:26:25.928Z,995.68
2023-04-02T00:27:26.046Z,995.67
2023-04-02T00:28:27.745Z,995.68
2023-04-02T00:29:26.471Z,995.68
2023-04-02T00:30:26.650Z,995.72
2023-04-02T00:31:26.873Z,995.62
2023-04-02T00:32:27.158Z,995.76
2023-04-02T00:33:27.262Z,995.78
2023-04-02T00:34:27.406Z,995.80
2023-04-02T00:35:27.527Z,995.82
2023-04-02T00:36:30.254Z,995.82
2023-04-02T00:37:27.990Z,995.80
2023-04-02T00:38:29.336Z,995.81
2023-04-02T00:39:29.437Z,995.86
2023-04-02T00:40:30.554Z,995.88
2023-04-02T00:41:29.642Z,995.90
2023-04-02T00:42:29.004Z,995.91
2023-04-02T00:43:30.111Z,995.91
2023-04-02T00:44:29.362Z,995.95
2023-04-02T00:45:30.366Z,995.96
2023-04-02T00:46:31.475Z,995.96
2023-04-02T00:47:29.626Z,995.98
2023-04-02T00:48:29.834Z,996.01
2023-04-02T00:49:30.028Z,996.02
2023-04-02T00:50:30.301Z,996.02
2023-04-02T00:51:31.436Z,996.04
2023-04-02T00:52:30.688Z,996.08
2023-04-02T00:53:30.948Z,996.05
2023-04-02T00:54:31.233Z,996.05
2023-04-02T00:55:31.437Z,996.03
2023-04-02T00:56:31.582Z,996.08
2023-04-02T00:57:32.910Z,996.08
2023-04-02T00:58:32.162Z,996.14
2023-04-02T00:59:33.275Z,996.14
2023-04-02T01:00:32.426Z,996.21
2023-04-02T01:01:34.625Z,996.17
2023-04-02T01:02:34.025Z,996.22
2023-04-02T01:03:35.437Z,996.30
2023-04-02T01:04:33.430Z,996.21
2023-04-02T01:05:33.908Z,996.23
2023-04-02T01:06:35.922Z,996.28
2023-04-02T01:07:34.143Z,996.28
2023-04-02T01:08:34.313Z,996.30
2023-04-02T01:09:34.458Z,996.35
2023-04-02T01:10:34.626Z,996.39
2023-04-02T01:11:36.706Z,996.35
2023-04-02T01:12:34.895Z,996.34
2023-04-02T01:13:35.040Z,996.40
2023-04-02T01:14:36.366Z,996.40
2023-04-02T01:15:35.611Z,996.43
2023-04-02T01:16:36.894Z,996.35
2023-04-02T01:17:36.209Z,996.40
2023-04-02T01:18:37.391Z,996.45
2023-04-02T01:19:36.602Z,996.45
2023-04-02T01:20:37.703Z,996.49
2023-04-02T01:21:37.852Z,996.51
2023-04-02T01:22:36.993Z,996.56
2023-04-02T01:23:37.594Z,996.54
2023-04-02T01:24:37.425Z,996.54
2023-04-02T01:25:37.768Z,996.57
2023-04-02T01:26:38.021Z,996.58
2023-04-02T01:27:38.188Z,996.60
2023-04-02T01:28:38.358Z,996.70
2023-04-02T01:29:38.499Z,996.67
2023-04-02T01:30:38.711Z,996.69
2023-04-02T01:31:39.932Z,996.70
2023-04-02T01:32:39.130Z,996.75
2023-04-02T01:33:39.294Z,996.77
2023-04-02T01:34:39.489Z,996.77
2023-04-02T01:35:41.628Z,996.79
2023-04-02T01:36:42.440Z,996.84
2023-04-02T01:37:40.118Z,996.85
2023-04-02T01:38:40.292Z,996.86
2023-04-02T01:39:40.511Z,996.84
2023-04-02T01:40:40.695Z,996.96
2023-04-02T01:41:41.792Z,996.98
2023-04-02T01:42:41.901Z,997.03
2023-04-02T01:43:41.111Z,997.07
2023-04-02T01:44:42.308Z,996.99
2023-04-02T01:45:43.428Z,997.12
2023-04-02T01:46:41.677Z,997.11
2023-04-02T01:47:42.035Z,997.12
2023-04-02T01:48:44.244Z,997.15
2023-04-02T01:49:42.368Z,997.14
2023-04-02T01:50:42.506Z,997.16
2023-04-02T01:51:42.713Z,997.16
2023-04-02T01:52:42.884Z,997.10
2023-04-02T01:53:43.960Z,997.18
2023-04-02T01:54:43.116Z,997.26
2023-04-02T01:55:43.281Z,997.22
2023-04-02T01:56:43.527Z,997.23
2023-04-02T01:57:45.761Z,997.32
2023-04-02T01:58:44.844Z,997.34
2023-04-02T01:59:44.694Z,997.33
2023-04-02T02:00:46.433Z,997.31
2023-04-02T02:01:44.751Z,997.31
2023-04-02T02:02:44.997Z,997.37
2023-04-02T02:03:45.341Z,997.36
2023-04-02T02:04:46.466Z,997.39
2023-04-02T02:05:47.091Z,997.43
2023-04-02T02:06:45.914Z,997.44
2023-04-02T02:07:46.129Z,997.44
2023-04-02T02:08:46.348Z,997.44
2023-04-02T02:09:46.525Z,997.49
2023-04-02T02:10:46.900Z,997.62
2023-04-02T02:11:47.039Z,997.60
2023-04-02T02:12:47.232Z,997.50
2023-04-02T02:13:47.447Z,997.61
2023-04-02T02:14:48.572Z,997.65
2023-04-02T02:15:47.714Z,997.70
2023-04-02T02:16:47.983Z,997.69
2023-04-02T02:17:48.240Z,997.68
2023-04-02T02:18:48.446Z,997.74
2023-04-02T02:19:48.649Z,997.73
2023-04-02T02:20:48.898Z,997.75
2023-04-02T02:21:49.090Z,997.75
2023-04-02T02:22:49.335Z,997.78
2023-04-02T02:23:49.547Z,997.79
2023-04-02T02:24:50.749Z,997.83
2023-04-02T02:25:49.997Z,997.87
2023-04-02T02:26:50.181Z,997.88
2023-04-02T02:27:51.359Z,997.86
2023-04-02T02:28:52.535Z,997.91
2023-04-02T02:29:50.912Z,997.93
2023-04-02T02:30:53.703Z,997.99
2023-04-02T02:31:52.953Z,997.94
2023-04-02T02:32:51.733Z,997.98
2023-04-02T02:33:51.939Z,998.02
2023-04-02T02:34:54.155Z,998.04
2023-04-02T02:35:53.975Z,998.10
2023-04-02T02:36:53.618Z,998.12
2023-04-02T02:37:52.783Z,998.11
2023-04-02T02:38:54.581Z,998.14
2023-04-02T02:39:54.987Z,998.17
2023-04-02T02:40:53.179Z,998.20
2023-04-02T02:41:53.281Z,998.22
2023-04-02T02:42:54.484Z,998.26
2023-04-02T02:43:54.623Z,998.24
2023-04-02T02:44:55.828Z,998.32
2023-04-02T02:45:56.060Z,998.34
2023-04-02T02:46:54.286Z,998.34
2023-04-02T02:47:54.568Z,998.35
2023-04-02T02:48:54.781Z,998.33
2023-04-02T02:49:54.953Z,998.37
2023-04-02T02:50:56.081Z,998.37
2023-04-02T02:51:55.379Z,998.42
2023-04-02T02:52:55.681Z,998.40
2023-04-02T02:53:55.822Z,998.49
2023-04-02T02:54:56.002Z,998.46
2023-04-02T02:55:56.177Z,998.50
2023-04-02T02:56:57.323Z,998.58
2023-04-02T02:57:57.553Z,998.55
2023-04-02T02:58:58.760Z,998.55
2023-04-02T02:59:58.924Z,998.62
2023-04-02T03:00:59.107Z,998.62
2023-04-02T03:01:57.323Z,998.59
2023-04-02T03:02:57.645Z,998.62
2023-04-02T03:03:58.058Z,998.64
2023-04-02T03:04:59.295Z,998.71
2023-04-02T03:06:23.903Z,998.76
2023-04-02T03:06:58.709Z,998.79
2023-04-02T03:08:00.921Z,998.79
2023-04-02T03:08:59.045Z,998.84
2023-04-02T03:10:01.184Z,998.85
2023-04-02T03:10:59.384Z,998.86
2023-04-02T03:11:59.614Z,998.85
2023-04-02T03:12:59.774Z,998.81
2023-04-02T03:13:59.902Z,998.84
2023-04-02T03:15:01.141Z,998.91
2023-04-02T03:16:02.348Z,998.92
2023-04-02T03:17:00.567Z,998.95
2023-04-02T03:18:00.843Z,998.98
2023-04-02T03:19:01.182Z,999.04
2023-04-02T03:20:01.438Z,999.08
2023-04-02T03:21:03.560Z,999.10
2023-04-02T03:22:03.722Z,999.06
2023-04-02T03:23:01.893Z,999.13
2023-04-02T03:24:02.020Z,999.10
2023-04-02T03:25:02.317Z,999.17
2023-04-02T03:26:02.587Z,999.17
2023-04-02T03:27:04.264Z,999.16
2023-04-02T03:28:03.009Z,999.23
2023-04-02T03:29:03.999Z,999.25
2023-04-02T03:30:04.537Z,999.26
2023-04-02T03:31:05.274Z,999.30
2023-04-02T03:32:04.749Z,999.35
2023-04-02T03:33:05.220Z,999.31
2023-04-02T03:34:05.425Z,999.29
2023-04-02T03:35:05.207Z,999.33
2023-04-02T03:36:07.571Z,999.28
2023-04-02T03:37:06.743Z,999.40
2023-04-02T03:38:06.184Z,999.49
2023-04-02T03:39:06.799Z,999.46
2023-04-02T03:40:06.938Z,999.42
2023-04-02T03:41:07.210Z,999.42
2023-04-02T03:42:08.347Z,999.48
2023-04-02T03:43:07.516Z,999.50
2023-04-02T03:44:08.725Z,999.49
2023-04-02T03:45:09.463Z,999.54
2023-04-02T03:46:08.160Z,999.60
2023-04-02T03:47:08.166Z,999.64
2023-04-02T03:48:08.353Z,999.63
2023-04-02T03:49:08.464Z,999.62
2023-04-02T03:50:09.146Z,999.63
2023-04-02T03:51:08.837Z,999.62
2023-04-02T03:52:08.993Z,999.74
2023-04-02T03:53:09.077Z,999.74
2023-04-02T03:54:09.177Z,999.74
2023-04-02T03:55:10.434Z,999.77
2023-04-02T03:56:09.599Z,999.71
2023-04-02T03:57:10.824Z,999.77
2023-04-02T03:58:10.485Z,999.79
2023-04-02T03:59:10.094Z,999.83
2023-04-02T04:00:10.743Z,999.76
2023-04-02T04:01:10.379Z,999.83
2023-04-02T04:02:09.544Z,999.85
2023-04-02T04:03:09.805Z,999.82
2023-04-02T04:04:10.137Z,999.80
2023-04-02T04:05:12.324Z,999.88
2023-04-02T04:06:15.742Z,999.88
2023-04-02T04:07:10.944Z,999.88
2023-04-02T04:08:12.272Z,999.93
2023-04-02T04:09:12.368Z,1000.00
2023-04-02T04:10:11.503Z,999.96
2023-04-02T04:11:11.691Z,1000.03
2023-04-02T04:12:11.849Z,1000.02
2023-04-02T04:13:13.998Z,1000.08
2023-04-02T04:14:12.167Z,1000.13
2023-04-02T04:15:12.283Z,1000.08
2023-04-02T04:16:12.473Z,1000.13
2023-04-02T04:17:12.671Z,1000.20
2023-04-02T04:18:13.845Z,1000.20
2023-04-02T04:19:14.002Z,1000.21
2023-04-02T04:20:13.253Z,1000.25
2023-04-02T04:21:13.450Z,1000.29
2023-04-02T04:22:13.635Z,1000.28
2023-04-02T04:23:14.776Z,1000.27
2023-04-02T04:24:13.933Z,1000.32
2023-04-02T04:25:14.204Z,1000.32
2023-04-02T04:26:14.322Z,1000.42
2023-04-02T04:27:14.471Z,1000.46
2023-04-02T04:28:14.643Z,1000.44
2023-04-02T04:29:15.737Z,1000.51
2023-04-02T04:30:15.099Z,1000.52
2023-04-02T04:31:16.739Z,1000.54
2023-04-02T04:32:15.586Z,1000.53
2023-04-02T04:33:15.832Z,1000.52
2023-04-02T04:34:18.112Z,1000.61
2023-04-02T04:35:17.851Z,1000.60
2023-04-02T04:36:18.447Z,1000.63
2023-04-02T04:37:16.674Z,1000.65
2023-04-02T04:38:17.807Z,1000.70
2023-04-02T04:39:16.945Z,1000.68
2023-04-02T04:40:17.114Z,1000.72
2023-04-02T04:41:17.329Z,1000.82
2023-04-02T04:42:17.497Z,1000.76
2023-04-02T04:43:17.640Z,1000.81
2023-04-02T04:44:19.791Z,1000.88
2023-04-02T04:45:19.005Z,1000.89
2023-04-02T04:46:18.314Z,1000.89
2023-04-02T04:47:18.551Z,1000.91
2023-04-02T04:48:19.690Z,1000.95
2023-04-02T04:49:18.853Z,1000.89
2023-04-02T04:50:21.020Z,1001.02
2023-04-02T04:51:19.156Z,1001.02
2023-04-02T04:52:20.304Z,1000.99
2023-04-02T04:53:19.455Z,1001.06
2023-04-02T04:54:20.571Z,1001.10
2023-04-02T04:55:19.784Z,1001.06
2023-04-02T04:56:20.057Z,1001.17
2023-04-02T04:57:22.181Z,1001.13
2023-04-02T04:58:22.371Z,1001.12
2023-04-02T04:59:21.494Z,1001.20
2023-04-02T05:00:22.746Z,1001.18
2023-04-02T05:01:21.859Z,1001.17
2023-04-02T05:02:21.947Z,1001.31
2023-04-02T05:03:21.247Z,1001.22
2023-04-02T05:04:21.777Z,1001.28
2023-04-02T05:05:22.409Z,1001.27
2023-04-02T05:06:24.456Z,1001.26
2023-04-02T05:07:21.615Z,1001.26
2023-04-02T05:08:21.864Z,1001.29
2023-04-02T05:09:23.035Z,1001.31
2023-04-02T05:10:22.202Z,1001.27
2023-04-02T05:11:24.325Z,1001.29
2023-04-02T05:12:22.453Z,1001.41
2023-04-02T05:13:22.585Z,1001.43
2023-04-02T05:14:24.726Z,1001.45
2023-04-02T05:15:23.846Z,1001.41
2023-04-02T05:16:25.008Z,1001.42
2023-04-02T05:17:23.196Z,1001.47
2023-04-02T05:18:23.390Z,1001.51
2023-04-02T05:19:25.535Z,1001.40
2023-04-02T05:20:24.649Z,1001.52
2023-04-02T05:21:23.808Z,1001.55
2023-04-02T05:22:24.920Z,1001.56
2023-04-02T05:23:24.143Z,1001.62
2023-04-02T05:24:24.385Z,1001.62
2023-04-02T05:25:24.549Z,1001.65
2023-04-02T05:26:25.750Z,1001.73
2023-04-02T05:27:24.920Z,1001.75
2023-04-02T05:28:26.088Z,1001.79
2023-04-02T05:29:27.212Z,1001.77
2023-04-02T05:30:25.356Z,1001.78
2023-04-02T05:31:27.954Z,1001.82
2023-04-02T05:32:27.272Z,1001.78
2023-04-02T05:33:28.962Z,1001.80
2023-04-02T05:34:26.094Z,1001.85
2023-04-02T05:35:26.243Z,1001.86
2023-04-02T05:36:27.975Z,1001.89
2023-04-02T05:37:28.647Z,1001.90
2023-04-02T05:38:26.835Z,1001.91
2023-04-02T05:39:26.962Z,1001.92
2023-04-02T05:40:27.179Z,1001.88
2023-04-02T05:41:29.315Z,1001.94
2023-04-02T05:42:27.497Z,1001.93
2023-04-02T05:43:27.691Z,1001.91
2023-04-02T05:44:29.973Z,1001.95
2023-04-02T05:45:30.187Z,1002.04
2023-04-02T05:46:29.426Z,1002.02
2023-04-02T05:47:28.730Z,1002.04
2023-04-02T05:48:28.913Z,1002.02
2023-04-02T05:49:29.139Z,1002.05
2023-04-02T05:50:29.338Z,1002.12
2023-04-02T05:51:29.553Z,1002.10
2023-04-02T05:52:30.679Z,1002.10
2023-04-02T05:53:30.977Z,1002.08
2023-04-02T05:54:31.109Z,1002.19
2023-04-02T05:55:30.303Z,1002.16
2023-04-02T05:56:30.434Z,1002.17
2023-04-02T05:57:42.121Z,1002.29
2023-04-02T05:58:36.734Z,1002.27
2023-04-02T05:59:31.087Z,1002.22
2023-04-02T06:00:31.240Z,1002.31
2023-04-02T06:01:32.090Z,1002.33
2023-04-02T06:02:31.896Z,1002.42
2023-04-02T06:03:32.233Z,1002.37
2023-04-02T06:04:33.407Z,1002.44
2023-04-02T06:05:32.760Z,1002.46
2023-04-02T06:06:34.102Z,1002.45
2023-04-02T06:07:34.234Z,1002.46
2023-04-02T06:08:34.515Z,1002.50
2023-04-02T06:09:33.722Z,1002.53
2023-04-02T06:10:33.924Z,1002.58
2023-04-02T06:11:35.059Z,1002.55
2023-04-02T06:12:34.207Z,1002.50
2023-04-02T06:13:34.356Z,1002.55
2023-04-02T06:14:35.469Z,1002.64
2023-04-02T06:15:34.792Z,1002.61
2023-04-02T06:16:35.396Z,1002.65
2023-04-02T06:17:35.365Z,1002.73
2023-04-02T06:18:35.682Z,1002.71
2023-04-02T06:19:36.744Z,1002.76
2023-04-02T06:20:35.885Z,1002.77
2023-04-02T06:21:36.039Z,1002.77
2023-04-02T06:22:36.339Z,1002.79
2023-04-02T06:23:36.546Z,1002.88
2023-04-02T06:24:36.688Z,1002.82
2023-04-02T06:25:37.123Z,1002.89
2023-04-02T06:26:37.952Z,1002.91
2023-04-02T06:27:38.189Z,1003.00
2023-04-02T06:28:37.324Z,1002.94
2023-04-02T06:29:37.442Z,1003.04
2023-04-02T06:30:37.703Z,1003.02
2023-04-02T06:31:37.932Z,1003.08
2023-04-02T06:32:38.131Z,1003.01
2023-04-02T06:33:38.378Z,1003.03
2023-04-02T06:34:38.570Z,1003.04
2023-04-02T06:35:40.829Z,1003.21
2023-04-02T06:36:39.087Z,1003.20
2023-04-02T06:37:40.179Z,1003.22
2023-04-02T06:38:39.482Z,1003.23
2023-04-02T06:39:40.572Z,1003.29
2023-04-02T06:40:39.773Z,1003.26
2023-04-02T06:41:39.947Z,1003.27
2023-04-02T06:42:40.116Z,1003.32
2023-04-02T06:43:40.301Z,1003.35
2023-04-02T06:44:40.458Z,1003.42
2023-04-02T06:45:41.609Z,1003.39
2023-04-02T06:46:40.813Z,1003.44
2023-04-02T06:47:42.017Z,1003.42
2023-04-02T06:48:42.167Z,1003.49
2023-04-02T06:49:43.310Z,1003.48
2023-04-02T06:50:41.541Z,1003.49
2023-04-02T06:51:41.646Z,1003.52
2023-04-02T06:52:41.788Z,1003.59
2023-04-02T06:53:41.949Z,1003.61
2023-04-02T06:54:42.123Z,1003.64
2023-04-02T06:55:44.302Z,1003.60
2023-04-02T06:56:43.961Z,1003.65
2023-04-02T06:57:43.550Z,1003.64
2023-04-02T06:58:42.767Z,1003.69
2023-04-02T06:59:44.379Z,1003.72
2023-04-02T07:00:44.068Z,1003.74
2023-04-02T07:01:45.154Z,1003.76
2023-04-02T07:02:44.286Z,1003.80
2023-04-02T07:03:43.504Z,1003.78
2023-04-02T07:04:43.693Z,1003.87
2023-04-02T07:05:46.431Z,1003.87
2023-04-02T07:06:44.040Z,1003.89
2023-04-02T07:07:44.145Z,1003.94
2023-04-02T07:08:44.259Z,1003.94
2023-04-02T07:09:44.407Z,1003.99
2023-04-02T07:10:45.590Z,1003.99
2023-04-02T07:11:44.742Z,1004.04
2023-04-02T07:12:45.956Z,1004.05
2023-04-02T07:13:45.379Z,1004.03
2023-04-02T07:14:45.605Z,1004.03
2023-04-02T07:15:46.793Z,1004.08
2023-04-02T07:16:45.943Z,1004.10
2023-04-02T07:17:46.149Z,1004.03
2023-04-02T07:18:46.332Z,1004.14
2023-04-02T07:19:46.442Z,1004.14
2023-04-02T07:20:47.577Z,1004.12
2023-04-02T07:21:46.674Z,1004.21
2023-04-02T07:22:49.203Z,1004.14
2023-04-02T07:23:46.821Z,1004.24
2023-04-02T07:24:48.621Z,1004.28
2023-04-02T07:25:47.262Z,1004.28
2023-04-02T07:26:47.610Z,1004.31
2023-04-02T07:27:47.762Z,1004.35
2023-04-02T07:28:48.091Z,1004.33
2023-04-02T07:29:48.263Z,1004.36
2023-04-02T07:30:49.395Z,1004.31
2023-04-02T07:31:48.600Z,1004.36
2023-04-02T07:32:50.852Z,1004.40
2023-04-02T07:33:49.054Z,1004.42
2023-04-02T07:34:51.093Z,1004.40
2023-04-02T07:35:51.106Z,1004.42
2023-04-02T07:36:50.301Z,1004.45
2023-04-02T07:37:49.498Z,1004.50
2023-04-02T07:38:49.624Z,1004.44
2023-04-02T07:39:51.819Z,1004.46
2023-04-02T07:40:51.030Z,1004.51
2023-04-02T07:41:51.126Z,1004.45
2023-04-02T07:42:51.231Z,1004.53
2023-04-02T07:43:50.388Z,1004.51
2023-04-02T07:44:52.630Z,1004.56
2023-04-02T07:45:50.843Z,1004.56
2023-04-02T07:46:50.997Z,1004.57
2023-04-02T07:47:52.368Z,1004.67
2023-04-02T07:48:52.506Z,1004.63
2023-04-02T07:49:51.837Z,1004.69
2023-04-02T07:50:52.068Z,1004.66
2023-04-02T07:51:54.377Z,1004.71
2023-04-02T07:52:53.575Z,1004.68
2023-04-02T07:53:54.715Z,1004.74
2023-04-02T07:54:53.877Z,1004.72
2023-04-02T07:55:54.992Z,1004.76
2023-04-02T07:56:55.626Z,1004.74
2023-04-02T07:57:53.378Z,1004.77
2023-04-02T07:58:53.531Z,1004.80
2023-04-02T07:59:55.722Z,1004.80
2023-04-02T08:00:55.382Z,1004.74
2023-04-02T08:01:54.316Z,1004.80
2023-04-02T08:02:54.067Z,1004.76
2023-04-02T08:03:54.717Z,1004.79
2023-04-02T08:04:56.412Z,1004.81
2023-04-02T08:05:56.364Z,1004.87
2023-04-02T08:06:55.529Z,1004.91
2023-04-02T08:07:55.952Z,1005.00
2023-04-02T08:08:55.087Z,1005.00
2023-04-02T08:09:55.320Z,1005.01
2023-04-02T08:10:56.427Z,1005.04
2023-04-02T08:11:55.621Z,1005.06
2023-04-02T08:12:55.745Z,1005.08
2023-04-02T08:13:55.911Z,1005.09
2023-04-02T08:14:57.502Z,1005.11
2023-04-02T08:15:58.509Z,1005.11
2023-04-02T08:16:57.162Z,1005.12
2023-04-02T08:17:58.254Z,1005.14
2023-04-02T08:18:56.387Z,1005.21
2023-04-02T08:19:56.597Z,1005.15
2023-04-02T08:20:58.347Z,1005.19
2023-04-02T08:21:59.489Z,1005.19
2023-04-02T08:22:58.118Z,1005.27
2023-04-02T08:23:59.969Z,1005.30
2023-04-02T08:25:00.111Z,1005.25
2023-04-02T08:25:57.810Z,1005.31
2023-04-02T08:26:58.020Z,1005.34
2023-04-02T08:27:58.125Z,1005.40
2023-04-02T08:28:58.245Z,1005.43
2023-04-02T08:29:58.516Z,1005.37
2023-04-02T08:31:01.081Z,1005.48
2023-04-02T08:31:58.727Z,1005.47
2023-04-02T08:32:58.975Z,1005.54
2023-04-02T08:34:00.112Z,1005.54
2023-04-02T08:35:01.223Z,1005.62
2023-04-02T08:37:01.517Z,1005.65
2023-04-02T08:38:01.610Z,1005.76
2023-04-02T08:39:02.203Z,1005.77
2023-04-02T08:40:00.829Z,1005.78
2023-04-02T08:41:00.031Z,1005.79
2023-04-02T08:42:00.223Z,1005.79
2023-04-02T08:43:01.328Z,1005.84
2023-04-02T08:44:02.547Z,1005.87
2023-04-02T08:45:03.933Z,1005.85
2023-04-02T08:46:00.836Z,1005.84
2023-04-02T08:47:01.023Z,1005.88
2023-04-02T08:48:01.270Z,1005.90
2023-04-02T08:49:01.463Z,1005.96
2023-04-02T08:50:02.632Z,1005.95
2023-04-02T08:51:02.826Z,1005.96
2023-04-02T08:52:01.993Z,1005.93
2023-04-02T08:53:03.438Z,1005.99
2023-04-02T08:54:03.610Z,1005.96
2023-04-02T08:55:02.739Z,1006.00
2023-04-02T08:56:02.886Z,1005.98
2023-04-02T08:57:03.064Z,1006.00
2023-04-02T08:58:06.264Z,1006.07
2023-04-02T08:59:03.510Z,1006.03
2023-04-02T09:00:03.627Z,1006.11
2023-04-02T09:01:04.754Z,1006.05
2023-04-02T09:02:03.977Z,1006.13
2023-04-02T09:03:04.164Z,1006.00
2023-04-02T09:04:04.643Z,1006.14
2023-04-02T09:05:05.362Z,1006.15
2023-04-02T09:07:06.356Z,1006.19
2023-04-02T09:08:08.275Z,1006.18
2023-04-02T09:09:05.910Z,1006.20
2023-04-02T09:10:05.523Z,1006.21
2023-04-02T09:11:06.289Z,1006.22
2023-04-02T09:12:05.924Z,1006.23
2023-04-02T09:13:07.654Z,1006.21
2023-04-02T09:14:06.333Z,1006.21
2023-04-02T09:15:08.718Z,1006.28
2023-04-02T09:16:06.986Z,1006.27
2023-04-02T09:17:10.420Z,1006.35
2023-04-02T09:18:09.191Z,1006.29
2023-04-02T09:19:07.846Z,1006.33
2023-04-02T09:20:08.025Z,1006.39
2023-04-02T09:21:08.292Z,1006.41
2023-04-02T09:22:08.416Z,1006.34
2023-04-02T09:23:10.543Z,1006.45
2023-04-02T09:24:08.705Z,1006.51
2023-04-02T09:25:08.853Z,1006.51
2023-04-02T09:26:08.971Z,1006.53
2023-04-02T09:27:09.100Z,1006.55
2023-04-02T09:28:11.288Z,1006.57
2023-04-02T09:29:09.535Z,1006.55
2023-04-02T09:30:09.662Z,1006.59
2023-04-02T09:31:10.904Z,1006.60
2023-04-02T09:32:10.172Z,1006.62
2023-04-02T09:33:11.364Z,1006.65
2023-04-02T09:34:12.550Z,1006.65
2023-04-02T09:35:22.360Z,1006.67
2023-04-02T09:36:18.738Z,1006.74
2023-04-02T09:37:11.537Z,1006.74
2023-04-02T09:38:13.165Z,1006.79
2023-04-02T09:39:11.983Z,1006.86
2023-04-02T09:40:12.139Z,1006.87
2023-04-02T09:41:12.347Z,1006.80
2023-04-02T09:42:12.580Z,1006.93
2023-04-02T09:43:13.786Z,1006.93
2023-04-02T09:44:14.070Z,1006.81
2023-04-02T09:45:14.438Z,1006.89
2023-04-02T09:46:16.214Z,1007.00
2023-04-02T09:47:14.900Z,1006.90
2023-04-02T09:48:16.101Z,1007.00
2023-04-02T09:49:14.411Z,1006.95
2023-04-02T09:50:14.699Z,1006.97
2023-04-02T09:51:14.900Z,1006.97
2023-04-02T09:52:15.106Z,1006.96
2023-04-02T09:53:15.390Z,1007.03
2023-04-02T09:54:15.558Z,1007.00
2023-04-02T09:55:17.798Z,1006.97
2023-04-02T09:56:16.202Z,1006.94
2023-04-02T09:57:16.395Z,1006.97
2023-04-02T09:58:16.601Z,1007.04
2023-04-02T09:59:18.805Z,1007.05
2023-04-02T10:00:29.853Z,1007.09
2023-04-02T10:01:17.159Z,1007.07
2023-04-02T10:02:17.307Z,1007.08
2023-04-02T10:03:17.516Z,1007.07
2023-04-02T10:04:17.845Z,1007.10
2023-04-02T10:05:36.915Z,1007.09
2023-04-02T10:06:23.873Z,1007.20
2023-04-02T10:07:18.505Z,1007.19
2023-04-02T10:08:19.728Z,1007.14
2023-04-02T10:09:18.958Z,1007.15
2023-04-02T10:10:19.130Z,1007.15
2023-04-02T10:11:19.242Z,1007.20
2023-04-02T10:12:20.616Z,1007.25
2023-04-02T10:13:19.898Z,1007.26
2023-04-02T10:14:20.235Z,1007.19
2023-04-02T10:15:20.515Z,1007.20
2023-04-02T10:16:21.176Z,1007.21
2023-04-02T10:17:21.434Z,1007.25
2023-04-02T10:18:20.567Z,1007.23
2023-04-02T10:19:21.999Z,1007.34
2023-04-02T10:20:21.705Z,1007.32
2023-04-02T10:21:21.133Z,1007.34
2023-04-02T10:22:23.284Z,1007.29
2023-04-02T10:23:21.508Z,1007.38
2023-04-02T10:24:22.668Z,1007.41
2023-04-02T10:25:21.869Z,1007.40
2023-04-02T10:26:23.946Z,1007.47
2023-04-02T10:27:22.178Z,1007.51
2023-04-02T10:28:22.450Z,1007.51
2023-04-02T10:29:22.615Z,1007.48
2023-04-02T10:30:22.915Z,1007.42
2023-04-02T10:31:23.106Z,1007.46
2023-04-02T10:32:23.539Z,1007.54
2023-04-02T10:33:23.769Z,1007.53
2023-04-02T10:34:24.021Z,1007.61
2023-04-02T10:35:26.478Z,1007.62
2023-04-02T10:36:26.951Z,1007.59
2023-04-02T10:37:24.714Z,1007.62
2023-04-02T10:38:24.939Z,1007.62
2023-04-02T10:39:25.211Z,1007.62
2023-04-02T10:40:26.358Z,1007.60
2023-04-02T10:41:25.864Z,1007.64
2023-04-02T10:42:27.058Z,1007.74
2023-04-02T10:43:27.271Z,1007.67
2023-04-02T10:44:28.017Z,1007.68
2023-04-02T10:45:27.731Z,1007.69
2023-04-02T10:46:27.897Z,1007.70
2023-04-02T10:47:29.224Z,1007.70
2023-04-02T10:48:27.479Z,1007.70
2023-04-02T10:49:27.711Z,1007.66
2023-04-02T10:50:29.053Z,1007.66
2023-04-02T10:51:28.303Z,1007.67
2023-04-02T10:52:28.863Z,1007.67
2023-04-02T10:53:28.641Z,1007.72
2023-04-02T10:54:29.790Z,1007.68
2023-04-02T10:55:30.432Z,1007.69
2023-04-02T10:56:33.155Z,1007.75
2023-04-02T10:57:29.217Z,1007.75
2023-04-02T10:58:29.512Z,1007.72
2023-04-02T10:59:29.655Z,1007.76
2023-04-02T11:00:29.917Z,1007.71
2023-04-02T11:01:30.279Z,1007.75
2023-04-02T11:02:30.623Z,1007.79
2023-04-02T11:03:30.974Z,1007.77
2023-04-02T11:04:31.595Z,1007.75
2023-04-02T11:05:32.851Z,1007.78
2023-04-02T11:06:33.561Z,1007.81
2023-04-02T11:07:31.696Z,1007.83
2023-04-02T11:08:31.833Z,1007.87
2023-04-02T11:09:31.992Z,1007.81
2023-04-02T11:10:32.298Z,1007.85
2023-04-02T11:11:32.640Z,1007.89
2023-04-02T11:12:32.989Z,1007.89
2023-04-02T11:13:34.080Z,1007.89
2023-04-02T11:14:33.349Z,1007.97
2023-04-02T11:15:33.927Z,1007.89
2023-04-02T11:16:37.713Z,1007.89
2023-04-02T11:17:34.057Z,1007.83
2023-04-02T11:18:34.305Z,1007.94
2023-04-02T11:19:34.628Z,1007.91
2023-04-02T11:20:34.856Z,1007.92
2023-04-02T11:21:38.177Z,1007.94
2023-04-02T11:22:35.731Z,1008.02
2023-04-02T11:23:35.406Z,1007.99
2023-04-02T11:24:35.510Z,1007.96
2023-04-02T11:25:38.169Z,1007.99
2023-04-02T11:26:35.834Z,1007.99
2023-04-02T11:27:36.113Z,1007.97
2023-04-02T11:28:37.137Z,1008.03
2023-04-02T11:29:36.451Z,1008.07
2023-04-02T11:30:36.605Z,1008.07
2023-04-02T11:31:36.830Z,1008.12
2023-04-02T11:32:37.144Z,1008.15
2023-04-02T11:33:40.066Z,1008.13
2023-04-02T11:34:37.544Z,1008.16
2023-04-02T11:35:39.942Z,1008.19
2023-04-02T11:36:37.713Z,1008.16
2023-04-02T11:37:37.884Z,1008.19
2023-04-02T11:38:38.684Z,1008.12
2023-04-02T11:39:39.152Z,1008.11
2023-04-02T11:40:38.396Z,1008.15
2023-04-02T11:41:38.720Z,1008.18
2023-04-02T11:42:38.916Z,1008.13
2023-04-02T11:43:39.021Z,1008.21
2023-04-02T11:44:40.236Z,1008.25
2023-04-02T11:45:50.185Z,1008.21
2023-04-02T11:46:39.751Z,1008.22
2023-04-02T11:47:40.116Z,1008.20
2023-04-02T11:48:40.298Z,1008.29
2023-04-02T11:49:40.672Z,1008.25
2023-04-02T11:50:40.918Z,1008.27
2023-04-02T11:51:41.385Z,1008.29
2023-04-02T11:52:41.494Z,1008.34
2023-04-02T11:53:41.662Z,1008.34
2023-04-02T11:54:41.848Z,1008.33
2023-04-02T11:55:44.050Z,1008.37
2023-04-02T11:56:44.149Z,1008.42
2023-04-02T11:57:42.525Z,1008.40
2023-04-02T11:58:43.656Z,1008.39
2023-04-02T11:59:44.082Z,1008.40
2023-04-02T12:00:43.754Z,1008.41
2023-04-02T12:01:43.664Z,1008.45
2023-04-02T12:02:43.561Z,1008.44
2023-04-02T12:03:43.405Z,1008.39
2023-04-02T12:04:44.443Z,1008.43
2023-04-02T12:05:45.303Z,1008.39
2023-04-02T12:06:45.693Z,1008.40
2023-04-02T12:07:44.058Z,1008.41
2023-04-02T12:08:54.671Z,1008.49
2023-04-02T12:09:45.764Z,1008.39
2023-04-02T12:10:45.030Z,1008.43
2023-04-02T12:11:45.265Z,1008.49
2023-04-02T12:12:45.494Z,1008.44
2023-04-02T12:13:47.599Z,1008.47
2023-04-02T12:14:46.186Z,1008.50
2023-04-02T12:15:47.695Z,1008.56
2023-04-02T12:16:47.261Z,1008.57
2023-04-02T12:17:46.474Z,1008.51
2023-04-02T12:18:46.713Z,1008.58